createdAt,value
2019-05-01T00:01:28.557Z,10.08
2019-05-01T00:04:10.556Z,10.00
2019-05-01T00:06:45.046Z,10.04
2019-05-01T00:09:16.809Z,10.07
2019-05-01T00:11:47.134Z,10.12
2019-05-01T00:14:17.844Z,10.12
2019-05-01T00:16:48.609Z,10.08
2019-05-01T00:19:19.061Z,9.97
2019-05-01T00:21:49.631Z,9.94
2019-05-01T00:24:20.140Z,9.88
2019-05-01T00:26:51.481Z,10.01
2019-05-01T00:29:21.932Z,9.95
2019-05-01T00:31:52.569Z,9.95
2019-05-01T00:34:22.998Z,10.16
2019-05-01T00:36:53.783Z,10.07
2019-05-01T00:39:24.087Z,10.08
2019-05-01T00:41:54.542Z,10.22
2019-05-01T00:44:25.235Z,10.27
2019-05-01T00:46:55.598Z,10.33
2019-05-01T00:49:25.879Z,10.38
2019-05-01T00:51:56.653Z,10.46
2019-05-01T00:54:27.799Z,10.52
2019-05-01T00:57:19.805Z,10.37
2019-05-01T00:59:58.870Z,10.42
2019-05-01T01:02:41.156Z,10.47
2019-05-01T01:05:11.808Z,10.41
2019-05-01T01:07:42.080Z,10.42
2019-05-01T01:10:12.744Z,10.49
2019-05-01T01:12:43.411Z,10.51
2019-05-01T01:15:13.898Z,10.73
2019-05-01T01:17:44.215Z,10.68
2019-05-01T01:20:15.405Z,10.70
2019-05-01T01:22:45.895Z,10.65
2019-05-01T01:25:16.238Z,10.76
2019-05-01T01:27:46.995Z,10.81
2019-05-01T01:30:17.873Z,10.73
2019-05-01T01:32:48.192Z,10.82
2019-05-01T01:35:18.855Z,10.70
2019-05-01T01:37:49.573Z,10.69
2019-05-01T01:40:20.312Z,10.67
2019-05-01T01:42:52.884Z,10.72
2019-05-01T01:45:40.527Z,10.59
2019-05-01T01:48:17.482Z,10.60
2019-05-01T01:50:49.085Z,10.66
2019-05-01T01:53:22.075Z,10.65
2019-05-01T01:55:52.660Z,10.48
2019-05-01T01:58:23.580Z,10.41
2019-05-01T02:01:09.504Z,10.39
2019-05-01T02:03:39.284Z,10.47
2019-05-01T02:06:09.892Z,10.58
2019-05-01T02:08:40.695Z,10.54
2019-05-01T02:11:11.499Z,10.54
2019-05-01T02:13:42.363Z,10.51
2019-05-01T02:16:12.678Z,10.51
2019-05-01T02:18:42.998Z,10.51
2019-05-01T02:21:13.425Z,10.45
2019-05-01T02:23:43.748Z,10.51
2019-05-01T02:26:16.314Z,10.52
2019-05-01T02:28:57.417Z,10.45
2019-05-01T02:31:39.718Z,10.50
2019-05-01T02:34:11.164Z,10.37
2019-05-01T02:36:44.192Z,10.30
2019-05-01T02:39:17.161Z,10.40
2019-05-01T02:41:49.323Z,10.34
2019-05-01T02:44:25.742Z,10.28
2019-05-01T02:46:58.360Z,10.34
2019-05-01T02:49:36.076Z,10.20
2019-05-01T02:52:08.241Z,10.18
2019-05-01T02:54:41.698Z,10.16
2019-05-01T02:57:17.462Z,10.12
2019-05-01T02:59:52.523Z,10.16
2019-05-01T03:02:26.469Z,10.14
2019-05-01T03:04:58.182Z,10.12
2019-05-01T03:07:31.651Z,10.15
2019-05-01T03:10:03.771Z,10.21
2019-05-01T03:12:38.108Z,10.19
2019-05-01T03:15:10.411Z,10.15
2019-05-01T03:18:14.085Z,10.11
2019-05-01T03:20:54.165Z,10.11
2019-05-01T03:23:37.331Z,10.06
2019-05-01T03:26:08.225Z,10.07
2019-05-01T03:28:39.944Z,10.07
2019-05-01T03:31:10.291Z,10.15
2019-05-01T03:33:41.126Z,10.18
2019-05-01T03:36:12.240Z,10.16
2019-05-01T03:38:42.973Z,10.25
2019-05-01T03:41:13.460Z,10.21
2019-05-01T03:43:44.240Z,10.06
2019-05-01T03:46:14.859Z,10.13
2019-05-01T03:48:45.948Z,10.05
2019-05-01T03:51:16.274Z,10.08
2019-05-01T03:53:46.767Z,10.02
2019-05-01T03:56:17.849Z,10.03
2019-05-01T03:58:48.124Z,10.04
2019-05-01T04:01:40.983Z,10.03
2019-05-01T04:04:15.379Z,10.08
2019-05-01T04:06:46.464Z,9.94
2019-05-01T04:09:17.171Z,10.02
2019-05-01T04:11:47.964Z,10.13
2019-05-01T04:14:18.747Z,10.09
2019-05-01T04:16:52.990Z,10.16
2019-05-01T04:19:24.104Z,10.22
2019-05-01T04:22:03.978Z,10.37
2019-05-01T04:24:34.493Z,10.51
2019-05-01T04:27:06.599Z,10.67
2019-05-01T04:29:51.181Z,10.70
2019-05-01T04:32:24.827Z,10.75
2019-05-01T04:35:17.590Z,10.85
2019-05-01T04:37:48.239Z,10.88
2019-05-01T04:40:20.228Z,10.94
2019-05-01T04:42:51.052Z,11.00
2019-05-01T04:45:23.363Z,11.21
2019-05-01T04:47:54.271Z,10.95
2019-05-01T04:50:24.754Z,11.15
2019-05-01T04:52:55.170Z,11.29
2019-05-01T04:55:26.008Z,11.06
2019-05-01T04:57:56.579Z,11.14
2019-05-01T05:00:27.376Z,11.27
2019-05-01T05:03:08.073Z,11.30
2019-05-01T05:05:38.653Z,11.24
2019-05-01T05:08:10.458Z,11.19
2019-05-01T05:10:41.417Z,11.30
2019-05-01T05:13:23.435Z,11.36
2019-05-01T05:16:05.463Z,11.42
2019-05-01T05:18:35.938Z,11.40
2019-05-01T05:21:06.351Z,11.55
2019-05-01T05:23:36.729Z,11.50
2019-05-01T05:26:07.572Z,11.63
2019-05-01T05:28:38.951Z,11.61
2019-05-01T05:31:11.486Z,11.64
2019-05-01T05:33:43.638Z,11.62
2019-05-01T05:36:17.183Z,11.75
2019-05-01T05:38:53.963Z,11.70
2019-05-01T05:41:25.021Z,11.70
2019-05-01T05:43:55.899Z,11.67
2019-05-01T05:46:26.692Z,11.61
2019-05-01T05:48:57.120Z,11.73
2019-05-01T05:51:49.647Z,11.75
2019-05-01T05:54:44.026Z,11.60
2019-05-01T05:57:24.773Z,11.71
2019-05-01T06:00:01.101Z,11.69
2019-05-01T06:02:49.017Z,11.77
2019-05-01T06:05:36.035Z,12.08
2019-05-01T06:08:23.365Z,12.01
2019-05-01T06:11:11.891Z,12.01
2019-05-01T06:13:58.974Z,12.09
2019-05-01T06:16:40.436Z,12.17
2019-05-01T06:19:32.836Z,12.35
2019-05-01T06:22:22.845Z,12.49
2019-05-01T06:24:59.011Z,12.41
2019-05-01T06:27:29.995Z,12.52
2019-05-01T06:30:01.615Z,12.66
2019-05-01T06:32:33.466Z,12.80
2019-05-01T06:35:05.174Z,12.76
2019-05-01T06:38:03.792Z,12.77
2019-05-01T06:40:42.194Z,13.02
2019-05-01T06:43:32.688Z,12.96
2019-05-01T06:46:26.665Z,13.17
2019-05-01T06:49:00.915Z,13.36
2019-05-01T06:51:47.916Z,13.27
2019-05-01T06:54:19.013Z,13.19
2019-05-01T06:56:50.867Z,13.09
2019-05-01T06:59:26.248Z,13.40
2019-05-01T07:01:58.474Z,13.54
2019-05-01T07:04:32.468Z,13.74
2019-05-01T07:07:06.926Z,13.78
2019-05-01T07:09:37.478Z,13.81
2019-05-01T07:12:13.880Z,13.79
2019-05-01T07:14:47.072Z,13.96
2019-05-01T07:17:17.319Z,13.84
2019-05-01T07:20:05.323Z,13.55
2019-05-01T07:22:37.013Z,11.87
2019-05-01T07:25:09.564Z,14.09
2019-05-01T07:27:40.372Z,14.25
2019-05-01T07:30:20.970Z,14.01
2019-05-01T07:32:51.550Z,14.38
2019-05-01T07:35:22.161Z,13.89
2019-05-01T07:37:53.433Z,14.37
2019-05-01T07:40:29.029Z,14.37
2019-05-01T07:43:02.600Z,14.20
2019-05-01T07:45:43.475Z,14.25
2019-05-01T07:48:13.475Z,14.51
2019-05-01T07:50:43.976Z,14.59
2019-05-01T07:53:14.589Z,14.74
2019-05-01T07:55:48.561Z,14.78
2019-05-01T07:58:18.167Z,14.78
2019-05-01T08:01:27.473Z,14.89
2019-05-01T08:03:57.875Z,14.78
2019-05-01T08:06:28.526Z,14.42
2019-05-01T08:08:58.934Z,14.90
2019-05-01T08:11:29.175Z,14.77
2019-05-01T08:14:07.356Z,15.12
2019-05-01T08:16:32.083Z,15.08
2019-05-01T08:19:18.325Z,13.53
2019-05-01T08:22:01.815Z,15.38
2019-05-01T08:24:31.753Z,15.35
2019-05-01T08:27:02.371Z,15.40
2019-05-01T08:29:57.551Z,15.15
2019-05-01T08:32:33.811Z,15.45
2019-05-01T08:35:09.098Z,15.46
2019-05-01T08:37:39.732Z,15.78
2019-05-01T08:40:10.132Z,15.57
2019-05-01T08:42:42.530Z,15.39
2019-05-01T08:45:30.729Z,15.52
2019-05-01T08:48:12.440Z,15.30
2019-05-01T08:50:42.954Z,15.69
2019-05-01T08:53:13.301Z,15.53
2019-05-01T08:55:45.206Z,15.34
2019-05-01T08:58:16.188Z,15.31
2019-05-01T09:00:46.480Z,15.58
2019-05-01T09:03:18.595Z,15.67
2019-05-01T09:05:52.219Z,15.77
2019-05-01T09:08:21.595Z,15.63
2019-05-01T09:10:54.857Z,15.36
2019-05-01T09:13:24.901Z,15.66
2019-05-01T09:15:55.217Z,15.90
2019-05-01T09:18:25.656Z,15.83
2019-05-01T09:20:58.051Z,16.25
2019-05-01T09:23:28.426Z,16.13
2019-05-01T09:26:33.476Z,16.01
2019-05-01T09:29:11.008Z,16.42
2019-05-01T09:31:40.022Z,15.90
2019-05-01T09:34:14.081Z,16.27
2019-05-01T09:36:42.945Z,16.63
2019-05-01T09:39:15.348Z,16.25
2019-05-01T09:41:47.464Z,16.67
2019-05-01T09:44:18.253Z,16.20
2019-05-01T09:46:48.780Z,15.87
2019-05-01T09:49:20.499Z,16.00
2019-05-01T09:52:18.998Z,16.72
2019-05-01T09:54:52.595Z,16.32
2019-05-01T09:57:25.222Z,16.48
2019-05-01T09:59:55.768Z,16.30
2019-05-01T10:02:26.338Z,16.53
2019-05-01T10:04:56.629Z,16.58
2019-05-01T10:07:28.948Z,16.91
2019-05-01T10:09:59.418Z,16.77
2019-05-01T10:12:29.914Z,16.50
2019-05-01T10:15:00.198Z,16.58
2019-05-01T10:17:30.949Z,16.71
2019-05-01T10:20:01.347Z,16.94
2019-05-01T10:22:32.988Z,16.45
2019-05-01T10:25:04.057Z,17.07
2019-05-01T10:27:37.419Z,17.48
2019-05-01T10:30:27.468Z,17.42
2019-05-01T10:33:04.548Z,17.87
2019-05-01T10:35:54.074Z,17.53
2019-05-01T10:38:24.485Z,16.74
2019-05-01T10:40:55.114Z,17.25
2019-05-01T10:43:25.774Z,17.33
2019-05-01T10:45:56.224Z,17.54
2019-05-01T10:48:26.640Z,17.41
2019-05-01T10:50:57.385Z,17.18
2019-05-01T10:53:27.660Z,17.98
2019-05-01T10:55:58.928Z,17.98
2019-05-01T10:58:29.723Z,18.05
2019-05-01T11:01:08.144Z,17.24
2019-05-01T11:03:39.089Z,18.31
2019-05-01T11:06:09.377Z,17.61
2019-05-01T11:08:39.715Z,17.41
2019-05-01T11:11:10.410Z,17.21
2019-05-01T11:13:40.823Z,17.35
2019-05-01T11:16:12.191Z,17.70
2019-05-01T11:18:42.932Z,17.92
2019-05-01T11:21:13.218Z,17.66
2019-05-01T11:23:43.614Z,18.56
2019-05-01T11:26:14.483Z,18.56
2019-05-01T11:28:44.919Z,18.61
2019-05-01T11:31:19.130Z,18.58
2019-05-01T11:34:20.736Z,18.92
2019-05-01T11:37:28.224Z,18.92
2019-05-01T11:40:12.244Z,18.48
2019-05-01T11:42:42.672Z,18.48
2019-05-01T11:45:13.204Z,18.04
2019-05-01T11:47:43.860Z,17.69
2019-05-01T11:50:14.569Z,17.77
2019-05-01T11:52:44.847Z,17.76
2019-05-01T11:55:15.693Z,17.81
2019-05-01T11:57:46.259Z,17.51
2019-05-01T12:00:18.339Z,17.78
2019-05-01T12:02:49.237Z,17.98
2019-05-01T12:05:19.517Z,17.98
2019-05-01T12:07:50.336Z,17.93
2019-05-01T12:10:21.080Z,18.26
2019-05-01T12:12:51.360Z,18.26
2019-05-01T12:15:22.242Z,18.13
2019-05-01T12:17:52.636Z,18.49
2019-05-01T12:20:23.611Z,18.49
2019-05-01T12:22:54.017Z,19.20
2019-05-01T12:25:24.710Z,18.89
2019-05-01T12:27:54.992Z,18.89
2019-05-01T12:30:25.517Z,19.27
2019-05-01T12:32:56.259Z,18.93
2019-05-01T12:35:27.596Z,18.26
2019-05-01T12:38:00.973Z,18.65
2019-05-01T12:40:31.255Z,18.11
2019-05-01T12:43:02.110Z,17.92
2019-05-01T12:45:32.811Z,17.64
2019-05-01T12:48:05.034Z,17.06
2019-05-01T12:50:35.367Z,17.23
2019-05-01T12:53:32.648Z,17.47
2019-05-01T12:56:27.872Z,17.49
2019-05-01T12:58:58.296Z,17.57
2019-05-01T13:01:29.063Z,17.82
2019-05-01T13:03:59.386Z,17.82
2019-05-01T13:06:29.658Z,18.55
2019-05-01T13:09:00.450Z,19.16
2019-05-01T13:11:32.388Z,19.18
2019-05-01T13:14:03.238Z,18.54
2019-05-01T13:16:33.500Z,18.40
2019-05-01T13:19:03.820Z,19.18
2019-05-01T13:21:34.289Z,19.58
2019-05-01T13:27:42.427Z,19.72
2019-05-01T13:30:37.633Z,19.57
2019-05-01T13:33:08.117Z,20.22
2019-05-01T13:35:38.601Z,20.51
2019-05-01T13:38:09.251Z,19.89
2019-05-01T13:40:39.950Z,20.55
2019-05-01T13:43:10.512Z,20.15
2019-05-01T13:45:40.772Z,19.19
2019-05-01T13:48:11.072Z,18.78
2019-05-01T13:50:41.547Z,18.44
2019-05-01T13:53:12.073Z,18.17
2019-05-01T13:56:17.968Z,18.21
2019-05-01T13:58:48.647Z,18.11
2019-05-01T14:01:19.775Z,17.71
2019-05-01T14:03:50.340Z,17.57
2019-05-01T14:06:21.112Z,17.59
2019-05-01T14:08:51.767Z,17.48
2019-05-01T14:11:22.080Z,17.18
2019-05-01T14:13:52.516Z,16.93
2019-05-01T14:16:22.811Z,16.92
2019-05-01T14:18:53.190Z,17.10
2019-05-01T14:21:30.585Z,17.04
2019-05-01T14:24:07.954Z,17.84
2019-05-01T14:26:38.607Z,17.56
2019-05-01T14:29:09.288Z,17.66
2019-05-01T14:31:39.626Z,17.88
2019-05-01T14:34:10.041Z,17.14
2019-05-01T14:36:40.703Z,17.21
2019-05-01T14:39:10.977Z,17.16
2019-05-01T14:41:41.404Z,16.97
2019-05-01T14:44:12.052Z,17.29
2019-05-01T14:46:42.608Z,17.56
2019-05-01T14:49:12.877Z,17.21
2019-05-01T14:51:43.281Z,17.60
2019-05-01T14:54:13.851Z,17.53
2019-05-01T14:56:44.244Z,17.45
2019-05-01T14:59:14.683Z,17.01
2019-05-01T15:01:47.250Z,17.57
2019-05-01T15:04:17.397Z,17.36
2019-05-01T15:11:16.483Z,17.83
2019-05-01T15:13:53.428Z,17.57
2019-05-01T15:16:29.826Z,18.07
2019-05-01T15:19:25.429Z,18.07
2019-05-01T15:21:55.738Z,18.02
2019-05-01T15:24:26.315Z,18.08
2019-05-01T15:26:57.053Z,18.08
2019-05-01T15:29:27.343Z,18.28
2019-05-01T15:31:57.692Z,17.94
2019-05-01T15:34:28.089Z,18.42
2019-05-01T15:36:58.376Z,18.40
2019-05-01T15:39:36.713Z,18.40
2019-05-01T15:42:29.918Z,18.28
2019-05-01T15:45:00.401Z,18.26
2019-05-01T15:47:31.183Z,18.08
2019-05-01T15:50:01.473Z,18.44
2019-05-01T15:52:31.932Z,19.05
2019-05-01T15:55:02.609Z,19.13
2019-05-01T15:57:33.213Z,19.39
2019-05-01T16:00:03.989Z,19.33
2019-05-01T16:02:35.291Z,19.30
2019-05-01T16:05:06.132Z,19.03
2019-05-01T16:07:36.455Z,18.19
2019-05-01T16:10:11.846Z,18.14
2019-05-01T16:13:02.391Z,18.91
2019-05-01T16:15:34.501Z,18.91
2019-05-01T16:18:05.266Z,17.80
2019-05-01T16:20:35.622Z,18.11
2019-05-01T16:23:06.200Z,17.28
2019-05-01T16:25:36.709Z,16.67
2019-05-01T16:28:06.995Z,17.07
2019-05-01T16:30:37.434Z,16.12
2019-05-01T16:33:07.859Z,16.34
2019-05-01T16:35:38.135Z,16.26
2019-05-01T16:38:22.747Z,16.39
2019-05-01T16:40:59.996Z,16.60
2019-05-01T16:43:30.345Z,15.92
2019-05-01T16:46:00.979Z,15.96
2019-05-01T16:48:31.262Z,15.97
2019-05-01T16:51:01.957Z,15.48
2019-05-01T16:53:32.623Z,15.24
2019-05-01T16:56:03.053Z,15.10
2019-05-01T16:58:33.884Z,14.93
2019-05-01T17:01:16.957Z,14.55
2019-05-01T17:04:06.192Z,14.32
2019-05-01T17:06:45.369Z,14.12
2019-05-01T17:09:35.334Z,14.01
2019-05-01T17:12:06.026Z,13.87
2019-05-01T17:14:36.558Z,13.59
2019-05-01T17:17:10.151Z,13.66
2019-05-01T17:19:40.467Z,13.42
2019-05-01T17:22:14.383Z,13.39
2019-05-01T17:24:43.213Z,13.35
2019-05-01T17:27:13.730Z,13.36
2019-05-01T17:29:44.209Z,13.23
2019-05-01T17:32:16.833Z,12.99
2019-05-01T17:34:47.368Z,12.99
2019-05-01T17:37:17.706Z,13.22
2019-05-01T17:39:48.436Z,12.98
2019-05-01T17:42:19.098Z,12.92
2019-05-01T17:44:49.379Z,12.89
2019-05-01T17:47:22.470Z,12.57
2019-05-01T17:49:52.211Z,12.49
2019-05-01T17:52:22.520Z,12.21
2019-05-01T17:54:54.186Z,12.62
2019-05-01T17:57:24.468Z,12.34
2019-05-01T17:59:56.850Z,12.34
2019-05-01T18:02:40.571Z,12.39
2019-05-01T18:05:26.809Z,12.59
2019-05-01T18:07:57.246Z,12.55
2019-05-01T18:10:27.908Z,12.45
2019-05-01T18:12:58.190Z,12.30
2019-05-01T18:15:28.534Z,12.30
2019-05-01T18:17:59.059Z,12.28
2019-05-01T18:20:29.611Z,12.27
2019-05-01T18:23:27.694Z,12.25
2019-05-01T18:26:08.736Z,12.46
2019-05-01T18:28:41.007Z,12.36
2019-05-01T18:31:16.660Z,12.42
2019-05-01T18:33:46.938Z,12.35
2019-05-01T18:36:19.884Z,12.41
2019-05-01T18:38:58.607Z,12.28
2019-05-01T18:41:34.321Z,12.32
2019-05-01T18:44:05.376Z,12.28
2019-05-01T18:46:37.373Z,12.29
2019-05-01T18:49:07.889Z,12.40
2019-05-01T18:51:40.697Z,12.37
2019-05-01T18:54:10.735Z,12.26
2019-05-01T18:56:41.207Z,12.26
2019-05-01T18:59:11.528Z,12.40
2019-05-01T19:01:43.963Z,12.45
2019-05-01T19:04:18.524Z,12.35
2019-05-01T19:06:46.785Z,12.39
2019-05-01T19:09:29.359Z,12.41
2019-05-01T19:11:49.763Z,12.15
2019-05-01T19:14:23.558Z,12.28
2019-05-01T19:16:53.288Z,12.24
2019-05-01T19:19:23.632Z,12.02
2019-05-01T19:21:55.086Z,12.07
2019-05-01T19:24:25.659Z,12.20
2019-05-01T19:26:55.958Z,12.25
2019-05-01T19:29:31.463Z,12.27
2019-05-01T19:31:58.507Z,12.34
2019-05-01T19:34:29.193Z,12.40
2019-05-01T19:36:59.803Z,12.11
2019-05-01T19:39:42.628Z,12.33
2019-05-01T19:42:02.855Z,12.23
2019-05-01T19:44:33.576Z,12.30
2019-05-01T19:47:04.107Z,12.09
2019-05-01T19:49:34.644Z,12.05
2019-05-01T19:52:05.537Z,11.97
2019-05-01T19:54:35.874Z,12.06
2019-05-01T19:57:06.379Z,12.03
2019-05-01T19:59:37.013Z,12.19
2019-05-01T20:02:07.766Z,12.16
2019-05-01T20:04:38.323Z,12.03
2019-05-01T20:07:10.654Z,12.01
2019-05-01T20:09:40.986Z,11.95
2019-05-01T20:12:11.751Z,11.93
2019-05-01T20:14:42.035Z,11.99
2019-05-01T20:17:12.392Z,11.82
2019-05-01T20:19:42.999Z,11.82
2019-05-01T20:22:13.280Z,11.78
2019-05-01T20:24:45.823Z,11.73
2019-05-01T20:27:17.380Z,11.72
2019-05-01T20:29:47.693Z,11.62
2019-05-01T20:32:21.058Z,11.78
2019-05-01T20:34:52.850Z,11.90
2019-05-01T20:37:22.404Z,11.92
2019-05-01T20:39:53.084Z,11.90
2019-05-01T20:42:23.419Z,11.81
2019-05-01T20:45:04.449Z,12.02
2019-05-01T20:47:34.789Z,12.02
2019-05-01T20:49:58.213Z,11.88
2019-05-01T20:52:28.529Z,11.98
2019-05-01T20:54:59.119Z,11.73
2019-05-01T20:57:33.321Z,11.78
2019-05-01T21:00:04.171Z,11.84
2019-05-01T21:02:38.857Z,11.77
2019-05-01T21:05:24.180Z,11.90
2019-05-01T21:08:13.109Z,11.74
2019-05-01T21:10:53.951Z,11.75
2019-05-01T21:13:25.092Z,11.74
2019-05-01T21:16:01.706Z,11.70
2019-05-01T21:18:29.193Z,11.68
2019-05-01T21:20:59.599Z,11.65
2019-05-01T21:23:30.373Z,11.51
2019-05-01T21:26:00.752Z,11.47
2019-05-01T21:28:31.154Z,11.52
2019-05-01T21:31:03.713Z,11.36
2019-05-01T21:33:34.299Z,11.38
2019-05-01T21:36:08.405Z,11.56
2019-05-01T21:38:37.888Z,11.59
2019-05-01T21:41:09.624Z,11.52
2019-05-01T21:43:39.897Z,11.49
2019-05-01T21:46:10.221Z,11.47
2019-05-01T21:48:40.882Z,11.40
2019-05-01T21:51:12.598Z,11.43
2019-05-01T21:53:46.408Z,11.38
2019-05-01T21:56:15.131Z,11.18
2019-05-01T21:58:45.517Z,11.44
2019-05-01T22:01:15.860Z,11.28
2019-05-01T22:03:46.611Z,11.28
2019-05-01T22:06:17.312Z,11.07
2019-05-01T22:08:47.599Z,11.01
2019-05-01T22:11:18.221Z,11.09
2019-05-01T22:13:48.681Z,10.85
2019-05-01T22:16:24.667Z,10.79
2019-05-01T22:19:10.798Z,10.62
2019-05-01T22:21:52.846Z,10.64
2019-05-01T22:24:45.877Z,10.65
2019-05-01T22:27:22.920Z,10.55
2019-05-01T22:29:59.609Z,10.36
2019-05-01T22:32:39.918Z,10.37
2019-05-01T22:35:19.419Z,10.46
2019-05-01T22:37:49.793Z,10.36
2019-05-01T22:40:28.960Z,10.33
2019-05-01T22:42:59.594Z,10.18
2019-05-01T22:45:30.047Z,10.05
2019-05-01T22:48:00.672Z,10.00
2019-05-01T22:50:31.038Z,9.96
2019-05-01T22:53:01.513Z,9.80
2019-05-01T22:55:32.086Z,9.81
2019-05-01T22:58:02.456Z,9.91
2019-05-01T23:00:54.152Z,9.91
2019-05-01T23:03:29.715Z,9.81
2019-05-01T23:06:01.944Z,9.77
2019-05-01T23:08:32.030Z,9.72
2019-05-01T23:11:02.703Z,9.73
2019-05-01T23:13:33.286Z,9.72
2019-05-01T23:16:05.147Z,9.73
2019-05-01T23:18:35.878Z,9.75
2019-05-01T23:21:09.781Z,9.84
2019-05-01T23:23:38.903Z,9.86
2019-05-01T23:26:11.638Z,9.91
2019-05-01T23:28:41.875Z,9.96
2019-05-01T23:31:12.681Z,9.87
2019-05-01T23:33:45.801Z,9.97
2019-05-01T23:36:23.402Z,9.84
2019-05-01T23:38:48.432Z,10.00
2019-05-01T23:41:24.904Z,9.92
2019-05-01T23:43:51.110Z,9.94
2019-05-01T23:46:22.011Z,9.90
2019-05-01T23:48:52.797Z,9.94
2019-05-01T23:51:23.706Z,9.93
2019-05-01T23:53:55.237Z,9.82
2019-05-01T23:56:25.612Z,9.93
2019-05-01T23:58:56.271Z,9.79
